Time;durP1;ratioP1;P1;durP2;ratioP2;P2;SDS_P1;SDS_P2;PMS_P1;PMS_P2;Temp;Humidity;BMP_temperature;BMP_pressure;BME280_temperature;BME280_humidity;BME280_pressure;Samples;Min_cycle;Max_cycle;Signal;HPM_P1;HPM_P2
2023/10/27 00:02:19;;;;;;;14.57;6.80;;;6.10;99.90;;;5.87;100.00;98141.22;5027736;28;20393;-82
2023/10/27 00:04:45;;;;;;;19.25;7.40;;;6.00;99.90;;;5.84;100.00;98143.59;5027749;28;20045;-82
2023/10/27 00:07:10;;;;;;;10.38;6.53;;;6.00;99.90;;;5.76;100.00;98140.25;5026988;28;20045;-82
2023/10/27 00:09:37;;;;;;;11.55;7.20;;;5.90;99.90;;;5.81;100.00;98146.81;5032352;28;20033;-81
2023/10/27 00:12:04;;;;;;;8.82;6.10;;;6.00;99.90;;;5.74;100.00;98153.22;5032161;28;20069;-81
2023/10/27 00:14:30;;;;;;;26.92;6.82;;;5.80;99.90;;;5.67;100.00;98147.13;5019896;28;20425;-80
2023/10/27 00:16:57;;;;;;;55.20;8.75;;;5.80;99.90;;;5.71;100.00;98145.59;5029271;28;20049;-81
2023/10/27 00:19:23;;;;;;;42.72;8.73;;;5.80;99.90;;;5.72;100.00;98128.28;5013670;28;20042;-82
2023/10/27 00:21:48;;;;;;;10.38;6.57;;;5.80;99.90;;;5.65;100.00;98124.09;5037221;28;20060;-81
2023/10/27 00:24:14;;;;;;;8.45;5.82;;;5.70;99.90;;;5.58;100.00;98125.09;5019836;28;20492;-81
2023/10/27 00:26:40;;;;;;;8.85;6.38;;;5.70;99.90;;;5.51;100.00;98121.72;5021338;28;20041;-81
2023/10/27 00:29:06;;;;;;;29.38;7.32;;;5.60;99.90;;;5.44;100.00;98123.75;5032189;28;20051;-81
2023/10/27 00:31:31;;;;;;;17.92;6.60;;;5.50;99.90;;;5.37;100.00;98123.91;5015697;28;20474;-81
2023/10/27 00:33:57;;;;;;;53.33;8.15;;;5.50;99.90;;;5.30;100.00;98124.09;5014217;28;20041;-80
2023/10/27 00:36:23;;;;;;;10.95;6.80;;;5.50;99.90;;;5.29;100.00;98127.84;5021962;28;20413;-80
2023/10/27 00:38:50;;;;;;;8.13;5.43;;;5.40;99.90;;;5.28;100.00;98128.09;5028634;28;20111;-82
2023/10/27 00:41:17;;;;;;;7.53;5.20;;;5.40;99.90;;;5.18;100.00;98113.34;5019651;28;20493;-81
2023/10/27 00:43:43;;;;;;;6.88;5.00;;;5.40;99.90;;;5.22;100.00;98119.06;5020969;28;20099;-81
2023/10/27 00:46:09;;;;;;;6.28;4.40;;;5.40;99.90;;;5.24;100.00;98116.94;5041112;28;20508;-81
2023/10/27 00:48:38;;;;;;;7.15;5.15;;;5.40;99.90;;;5.24;100.00;98125.06;5026975;28;20381;-81
2023/10/27 00:51:07;;;;;;;66.63;7.07;;;5.40;99.90;;;5.20;100.00;98120.41;5029457;28;20095;-82
2023/10/27 00:53:34;;;;;;;87.68;8.07;;;5.40;99.90;;;5.18;100.00;98117.91;5025841;28;20049;-82
2023/10/27 00:56:01;;;;;;;26.90;6.03;;;5.40;99.90;;;5.03;100.00;98103.06;5018572;28;20120;-81
2023/10/27 00:58:28;;;;;;;15.18;5.55;;;5.30;99.90;;;5.12;100.00;98114.31;5002438;28;20503;-80
2023/10/27 01:01:01;;;;;;;7.43;4.90;;;5.30;99.90;;;5.08;100.00;98121.25;5025859;28;20513;-81
2023/10/27 01:03:28;;;;;;;7.85;4.65;;;5.30;99.90;;;5.06;100.00;98115.28;5012737;28;20037;-80
2023/10/27 01:05:54;;;;;;;17.15;4.63;;;5.20;99.90;;;5.00;100.00;98114.34;5015078;28;20405;-80
2023/10/27 01:08:21;;;;;;;9.43;4.28;;;5.20;99.90;;;5.00;100.00;98117.06;5026999;28;20036;-80
2023/10/27 01:10:47;;;;;;;5.60;3.85;;;5.20;99.90;;;4.94;100.00;98106.44;5018782;28;20433;-81
2023/10/27 01:13:13;;;;;;;6.55;4.32;;;5.20;99.90;;;4.97;100.00;98112.16;5030091;28;20041;-81
2023/10/27 01:15:39;;;;;;;13.00;4.95;;;5.20;99.90;;;5.00;100.00;98114.34;5030809;28;20033;-82
2023/10/27 01:18:05;;;;;;;6.15;4.05;;;5.20;99.90;;;4.96;100.00;98102.41;5014033;28;20034;-81
2023/10/27 01:20:30;;;;;;;8.30;5.20;;;5.20;99.90;;;5.00;100.00;98106.25;5012626;28;20034;-80
2023/10/27 01:22:56;;;;;;;8.80;4.63;;;5.20;99.90;;;5.01;100.00;98102.50;5011773;28;20096;-81
2023/10/27 01:25:22;;;;;;;6.07;4.40;;;5.20;99.90;;;5.01;100.00;98097.06;5023352;28;20030;-80
2023/10/27 01:27:48;;;;;;;8.38;4.82;;;5.20;99.90;;;5.04;100.00;98096.63;5016003;28;20029;-80
2023/10/27 01:30:14;;;;;;;11.98;6.40;;;5.20;99.90;;;5.08;100.00;98091.53;5022283;28;20045;-81
2023/10/27 01:32:40;;;;;;;9.93;5.88;;;5.30;99.90;;;5.15;100.00;98099.50;5016876;28;20041;-81
2023/10/27 01:35:07;;;;;;;30.90;6.75;;;5.40;99.90;;;5.22;100.00;98091.22;5031090;28;20514;-80
2023/10/27 01:37:33;;;;;;;51.97;8.70;;;5.50;99.90;;;5.28;100.00;98101.88;5019911;28;20099;-80
2023/10/27 01:39:59;;;;;;;36.95;7.10;;;5.50;99.90;;;5.30;100.00;98091.66;5024327;28;20438;-81
2023/10/27 01:42:25;;;;;;;35.50;6.60;;;5.60;99.90;;;5.33;100.00;98088.47;5040762;28;20064;-81
2023/10/27 01:44:52;;;;;;;14.27;6.72;;;5.60;99.90;;;5.36;100.00;98076.31;5037676;28;20033;-81
2023/10/27 01:47:17;;;;;;;10.88;6.32;;;5.60;99.90;;;5.43;100.00;98076.16;5002472;28;20041;-81
2023/10/27 01:49:43;;;;;;;14.93;7.05;;;5.60;99.90;;;5.43;100.00;98057.22;5019424;28;20271;-81
2023/10/27 01:52:09;;;;;;;14.15;7.10;;;5.70;99.90;;;5.50;100.00;98060.56;5022227;28;20037;-81
2023/10/27 01:54:35;;;;;;;13.32;6.82;;;5.70;99.90;;;5.51;100.00;98048.69;5030751;28;20037;-81
2023/10/27 01:57:00;;;;;;;20.08;8.10;;;5.70;99.90;;;5.52;100.00;98055.72;5014449;28;20366;-81
2023/10/27 01:59:29;;;;;;;12.60;6.97;;;5.70;99.90;;;5.46;100.00;98048.63;5027972;28;20037;-81
2023/10/27 02:01:55;;;;;;;26.95;7.43;;;5.60;99.90;;;5.51;100.00;98066.81;5011938;28;20452;-81
2023/10/27 02:04:20;;;;;;;15.23;7.03;;;5.70;99.90;;;5.55;100.00;98062.56;5025643;28;20113;-81
2023/10/27 02:06:47;;;;;;;16.52;7.13;;;5.70;99.90;;;5.54;100.00;98059.00;5016483;28;20045;-81
2023/10/27 02:09:14;;;;;;;31.38;7.72;;;5.70;99.90;;;5.64;100.00;98065.66;5030633;28;20038;-81
2023/10/27 02:11:40;;;;;;;12.45;7.32;;;5.80;99.90;;;5.64;100.00;98061.06;5025257;28;20033;-81
2023/10/27 02:14:06;;;;;;;17.15;7.40;;;5.80;99.90;;;5.70;100.00;98061.97;5026684;28;20048;-80
2023/10/27 02:16:31;;;;;;;76.53;10.00;;;5.90;99.90;;;5.72;100.00;98057.94;5026340;28;20049;-81
2023/10/27 02:18:57;;;;;;;65.93;9.80;;;6.00;99.90;;;5.83;100.00;98069.72;5013058;28;20382;-81
2023/10/27 02:21:23;;;;;;;18.77;8.90;;;6.00;99.90;;;5.92;100.00;98066.59;5017601;28;20068;-81
2023/10/27 02:23:48;;;;;;;181.60;12.50;;;6.10;99.90;;;5.92;100.00;98051.16;5014754;28;20496;-81
2023/10/27 02:26:14;;;;;;;29.60;9.35;;;6.20;99.90;;;5.99;100.00;98045.56;5029063;28;20052;-81
2023/10/27 02:28:40;;;;;;;18.98;7.97;;;6.20;99.90;;;6.09;100.00;98048.44;5018446;28;20029;-81
2023/10/27 02:31:06;;;;;;;57.78;9.80;;;6.30;99.90;;;6.11;100.00;98046.31;5026399;28;20033;-80
2023/10/27 02:33:31;;;;;;;89.10;10.70;;;6.30;99.90;;;6.18;100.00;98051.53;5028880;28;20033;-80
2023/10/27 02:35:57;;;;;;;20.70;9.57;;;6.30;99.90;;;6.25;100.00;98060.31;5015958;28;20088;-80
2023/10/27 02:38:23;;;;;;;42.22;9.10;;;6.40;99.90;;;6.30;100.00;98054.09;5021224;28;20045;-80
2023/10/27 02:40:49;;;;;;;31.13;9.02;;;6.40;99.90;;;6.35;100.00;98065.00;5018955;28;20046;-80
2023/10/27 02:43:14;;;;;;;44.22;9.88;;;6.50;99.90;;;6.39;100.00;98052.63;5021383;28;20063;-80
2023/10/27 02:45:40;;;;;;;34.42;10.05;;;6.50;99.90;;;6.44;100.00;98047.25;5027060;28;20033;-82
2023/10/27 02:48:07;;;;;;;70.85;11.00;;;6.60;99.90;;;6.47;100.00;98043.19;5021853;28;20034;-82
2023/10/27 02:50:33;;;;;;;159.60;14.43;;;6.60;99.90;;;6.55;100.00;98047.34;5017697;28;20043;-80
2023/10/27 02:52:58;;;;;;;25.10;9.88;;;6.70;99.90;;;6.59;100.00;98045.78;5019898;28;20476;-81
2023/10/27 02:55:24;;;;;;;29.77;10.23;;;6.70;99.90;;;6.61;100.00;98039.03;5022158;28;20084;-81
2023/10/27 02:57:50;;;;;;;51.78;12.18;;;6.70;99.90;;;6.65;100.00;98042.06;5018298;28;20041;-81
2023/10/27 03:00:16;;;;;;;157.70;16.08;;;6.80;99.90;;;6.64;100.00;98039.59;5019694;28;20049;-80
2023/10/27 03:02:42;;;;;;;26.73;10.57;;;6.80;99.90;;;6.66;100.00;98042.88;5028325;28;20072;-79
2023/10/27 03:05:08;;;;;;;35.45;10.50;;;6.80;99.90;;;6.67;100.00;98039.91;5026810;28;20164;-82
2023/10/27 03:07:34;;;;;;;91.82;12.40;;;6.80;99.90;;;6.66;100.00;98043.69;5013625;28;20046;-81
2023/10/27 03:10:00;;;;;;;30.20;9.38;;;6.80;99.90;;;6.61;100.00;98040.91;5030138;28;20081;-81
2023/10/27 03:12:25;;;;;;;35.28;9.43;;;6.70;99.90;;;6.56;100.00;98044.41;5024457;28;20038;-84
2023/10/27 03:14:51;;;;;;;17.50;7.97;;;6.70;99.90;;;6.58;100.00;98038.72;5039869;28;20107;-82
2023/10/27 03:17:17;;;;;;;21.63;8.65;;;6.70;99.90;;;6.65;100.00;98036.66;5024683;28;20481;-81
2023/10/27 03:19:43;;;;;;;36.13;9.30;;;6.80;99.90;;;6.68;100.00;98038.84;5018585;28;20061;-85
2023/10/27 03:22:09;;;;;;;128.63;13.00;;;6.80;99.90;;;6.68;100.00;98038.84;5028497;28;20088;-82
2023/10/27 03:24:35;;;;;;;26.45;9.07;;;6.80;99.90;;;6.63;100.00;98036.09;5018763;28;20044;-81
2023/10/27 03:27:01;;;;;;;25.38;8.80;;;6.80;99.90;;;6.61;100.00;98033.63;5011292;28;20030;-81
2023/10/27 03:29:27;;;;;;;43.10;9.38;;;6.80;99.90;;;6.63;100.00;98046.91;5025003;28;20042;-81
2023/10/27 03:31:53;;;;;;;75.05;11.00;;;6.70;99.90;;;6.62;100.00;98054.22;5032036;28;20046;-82
2023/10/27 03:34:18;;;;;;;121.22;12.70;;;6.70;99.90;;;6.61;100.00;98051.75;5028923;28;20038;-81
2023/10/27 03:36:44;;;;;;;72.00;11.10;;;6.70;99.90;;;6.57;100.00;98047.91;5039410;28;20382;-80
2023/10/27 03:39:10;;;;;;;44.92;9.52;;;6.70;99.90;;;6.58;100.00;98050.38;5017276;28;20030;-90
2023/10/27 03:41:36;;;;;;;28.60;9.35;;;6.70;99.90;;;6.63;100.00;98049.63;5014837;28;20434;-83
2023/10/27 03:44:02;;;;;;;33.47;9.35;;;6.70;99.90;;;6.65;100.00;98044.78;5014164;28;20037;-80
2023/10/27 03:46:27;;;;;;;19.55;8.82;;;6.80;99.90;;;6.68;100.00;98046.97;5006786;28;20030;-80
2023/10/27 03:48:53;;;;;;;17.08;7.30;;;6.80;99.90;;;6.71;100.00;98045.63;5017282;28;20119;-80
2023/10/27 03:51:19;;;;;;;20.83;9.00;;;6.80;99.90;;;6.76;100.00;98051.91;5014489;28;20090;-80
2023/10/27 03:53:45;;;;;;;53.42;10.32;;;6.90;99.90;;;6.73;100.00;98038.88;5031801;28;20061;-81
2023/10/27 03:56:10;;;;;;;18.23;9.27;;;6.90;99.90;;;6.68;100.00;98036.13;5030991;28;20079;-81
2023/10/27 03:58:36;;;;;;;17.95;8.07;;;6.90;99.90;;;6.75;100.00;98050.28;5028438;28;20033;-80
2023/10/27 04:01:04;;;;;;;14.98;8.48;;;6.80;99.90;;;6.65;100.00;98038.53;5026452;28;20044;-80
2023/10/27 04:03:31;;;;;;;19.02;9.20;;;6.80;99.90;;;6.66;100.00;98043.69;5029766;28;20038;-81
2023/10/27 04:05:58;;;;;;;28.05;9.15;;;6.80;99.90;;;6.71;100.00;98051.88;5028727;28;20152;-82
2023/10/27 04:08:24;;;;;;;18.27;9.48;;;6.80;99.90;;;6.70;100.00;98052.94;5030413;28;20453;-81
2023/10/27 04:10:50;;;;;;;85.43;11.18;;;6.80;99.90;;;6.61;100.00;98047.16;5029131;28;20417;-81
2023/10/27 04:13:16;;;;;;;18.15;8.40;;;6.80;99.90;;;6.64;100.00;98053.97;5025189;28;20049;-81
2023/10/27 04:15:44;;;;;;;19.75;8.85;;;6.80;99.90;;;6.66;100.00;98054.53;5024906;28;20057;-82
2023/10/27 04:18:10;;;;;;;38.33;9.38;;;6.80;99.90;;;6.69;100.00;98048.59;5020687;28;20046;-80
2023/10/27 04:20:38;;;;;;;92.07;12.13;;;6.80;99.90;;;6.70;100.00;98044.81;5027207;28;20524;-80
2023/10/27 04:23:04;;;;;;;18.90;8.63;;;6.80;99.90;;;6.71;100.00;98029.38;5029404;28;20720;-80
2023/10/27 04:25:29;;;;;;;21.27;8.45;;;6.80;99.90;;;6.69;100.00;98029.63;5024826;28;20034;-80
2023/10/27 04:27:55;;;;;;;28.38;9.05;;;6.80;99.90;;;6.75;100.00;98035.91;5031015;28;20037;-80
2023/10/27 04:30:21;;;;;;;21.75;8.82;;;6.90;99.90;;;6.76;100.00;98026.69;5032365;28;20033;-80
2023/10/27 04:32:47;;;;;;;52.13;10.93;;;6.80;99.90;;;6.75;100.00;98025.91;5031766;28;20038;-80
2023/10/27 04:35:13;;;;;;;19.83;9.18;;;6.90;99.90;;;6.78;100.00;98029.16;5031154;28;20064;-81
2023/10/27 04:37:39;;;;;;;62.45;11.23;;;6.90;99.90;;;6.79;100.00;98019.97;5026957;28;20547;-80
2023/10/27 04:40:06;;;;;;;21.25;9.52;;;6.90;99.90;;;6.84;100.00;98025.44;5027407;28;20172;-81
2023/10/27 04:42:31;;;;;;;28.08;9.48;;;6.90;99.90;;;6.82;100.00;98014.03;5037741;28;20041;-81
2023/10/27 04:44:58;;;;;;;24.15;9.30;;;6.90;99.90;;;6.80;100.00;98010.75;5030633;28;20054;-81
2023/10/27 04:47:24;;;;;;;35.80;9.38;;;6.90;99.90;;;6.83;100.00;98019.22;5024912;28;20031;-81
2023/10/27 04:49:51;;;;;;;47.63;9.57;;;6.90;99.90;;;6.73;100.00;98011.78;5025945;28;20508;-81
2023/10/27 04:52:17;;;;;;;20.40;8.80;;;6.90;99.90;;;6.76;100.00;98024.00;5028181;28;20034;-81
2023/10/27 04:54:43;;;;;;;85.55;11.23;;;6.90;99.90;;;6.73;100.00;98021.78;5030225;28;20050;-81
2023/10/27 04:57:09;;;;;;;29.73;9.70;;;6.90;99.90;;;6.70;100.00;98019.59;5024767;28;20034;-81
2023/10/27 04:59:35;;;;;;;78.97;10.68;;;6.90;99.90;;;6.74;100.00;98023.44;5015213;28;20481;-81
2023/10/27 05:02:00;;;;;;;27.17;8.43;;;6.90;99.90;;;6.75;100.00;98031.31;5021017;28;20037;-81
2023/10/27 05:04:26;;;;;;;18.75;7.72;;;6.80;99.90;;;6.68;100.00;98017.16;5024394;28;20048;-81
2023/10/27 05:06:52;;;;;;;15.90;7.28;;;6.80;99.90;;;6.69;100.00;98024.22;5026386;28;20430;-81
2023/10/27 05:09:21;;;;;;;35.08;8.18;;;6.80;99.90;;;6.63;100.00;98027.97;5028886;28;20056;-81
2023/10/27 05:11:47;;;;;;;15.57;6.80;;;6.70;99.90;;;6.66;100.00;98029.31;5023658;28;20087;-81
2023/10/27 05:14:13;;;;;;;12.75;6.68;;;6.80;99.90;;;6.61;100.00;98028.19;5024862;28;20030;-80
2023/10/27 05:16:39;;;;;;;116.85;10.20;;;6.70;99.90;;;6.57;100.00;98023.53;5025223;28;20041;-81
2023/10/27 05:19:05;;;;;;;61.35;7.38;;;6.70;99.90;;;6.61;100.00;98027.38;5027538;28;20034;-80
2023/10/27 05:21:31;;;;;;;30.50;6.30;;;6.70;99.90;;;6.51;100.00;98019.97;5025206;28;20056;-81
2023/10/27 05:23:58;;;;;;;21.38;5.47;;;6.60;99.90;;;6.57;100.00;98027.06;5020521;28;20049;-81
2023/10/27 05:26:24;;;;;;;54.85;6.68;;;6.70;99.90;;;6.50;100.00;98012.94;5021427;28;20034;-82
2023/10/27 05:28:51;;;;;;;95.25;8.05;;;6.70;99.90;;;6.54;100.00;98018.63;5021323;28;20389;-81
2023/10/27 05:31:18;;;;;;;73.45;6.68;;;6.60;99.90;;;6.52;100.00;98027.03;5028938;28;20453;-81
2023/10/27 05:33:44;;;;;;;95.57;7.88;;;6.60;99.90;;;6.52;100.00;98034.31;5013815;28;20033;-81
2023/10/27 05:36:10;;;;;;;19.75;4.68;;;6.60;99.90;;;6.51;100.00;98035.41;5028266;28;20068;-82
2023/10/27 05:38:36;;;;;;;9.35;4.57;;;6.60;99.90;;;6.53;100.00;98046.78;5022810;28;20461;-83
2023/10/27 05:41:02;;;;;;;113.55;7.90;;;6.60;99.90;;;6.51;100.00;98048.94;5026411;28;20169;-84
2023/10/27 05:43:28;;;;;;;50.10;5.93;;;6.50;99.90;;;6.50;100.00;98056.25;5022417;28;20362;-84
2023/10/27 05:45:54;;;;;;;173.23;9.15;;;6.50;99.90;;;6.45;100.00;98059.72;5025128;28;20038;-84
2023/10/27 05:48:19;;;;;;;58.83;6.10;;;6.60;99.90;;;6.46;100.00;98066.78;5024372;28;20037;-84
2023/10/27 05:50:45;;;;;;;20.20;5.43;;;6.50;99.90;;;6.49;100.00;98065.44;5024358;28;20366;-84
2023/10/27 05:53:11;;;;;;;36.22;6.15;;;6.60;99.90;;;6.53;100.00;98049.50;5027034;28;20049;-85
2023/10/27 05:55:37;;;;;;;12.63;4.45;;;6.60;99.90;;;6.55;100.00;98055.47;5024809;28;20041;-85
2023/10/27 05:58:04;;;;;;;56.53;6.03;;;6.60;99.90;;;6.51;100.00;98038.09;5024602;28;20041;-84
2023/10/27 06:00:30;;;;;;;45.83;6.53;;;6.60;99.90;;;6.55;100.00;98041.94;5019755;28;20046;-81
2023/10/27 06:02:56;;;;;;;10.27;5.07;;;6.70;99.90;;;6.52;100.00;98040.56;5041691;28;20518;-84
2023/10/27 06:05:23;;;;;;;96.13;9.02;;;6.70;99.90;;;6.46;100.00;98036.97;5023223;28;20064;-83
2023/10/27 06:07:49;;;;;;;66.47;9.20;;;6.60;99.90;;;6.44;100.00;98043.72;5025748;28;20034;-84
2023/10/27 06:10:15;;;;;;;26.02;8.27;;;6.60;99.90;;;6.43;100.00;98040.19;5024623;28;20562;-84
2023/10/27 06:12:40;;;;;;;24.90;7.72;;;6.60;99.90;;;6.38;100.00;98033.91;5024361;28;20037;-85
2023/10/27 06:15:07;;;;;;;17.13;8.13;;;6.60;99.90;;;6.39;100.00;98022.81;5024628;28;20039;-81
2023/10/27 06:17:33;;;;;;;35.95;8.57;;;6.60;99.90;;;6.47;100.00;98032.38;5027833;28;20095;-81
2023/10/27 06:20:02;;;;;;;30.02;9.05;;;6.60;99.90;;;6.43;100.00;98023.94;5015926;28;20489;-84
2023/10/27 06:22:28;;;;;;;26.33;9.18;;;6.70;99.90;;;6.55;100.00;98026.50;5023770;28;20037;-88
2023/10/27 06:24:54;;;;;;;23.85;9.18;;;6.60;99.90;;;6.61;100.00;98019.25;5017711;28;20041;-84
2023/10/27 06:27:20;;;;;;;18.67;8.68;;;6.70;99.90;;;6.71;100.00;98029.38;5038670;28;20048;-85
2023/10/27 06:29:46;;;;;;;22.95;9.55;;;6.80;99.90;;;6.67;100.00;98022.81;5019050;28;20034;-85
2023/10/27 06:32:11;;;;;;;16.45;8.07;;;6.80;99.90;;;6.72;100.00;98028.28;5025197;28;20088;-84
2023/10/27 06:34:37;;;;;;;21.88;8.55;;;6.90;99.90;;;6.79;100.00;98025.38;5024413;28;20440;-83
2023/10/27 06:37:03;;;;;;;70.95;10.88;;;6.90;99.90;;;6.87;100.00;98027.63;5013738;28;20042;-84
2023/10/27 06:39:29;;;;;;;105.22;11.52;;;7.00;99.90;;;6.90;100.00;98032.56;5013599;28;20088;-84
2023/10/27 06:41:55;;;;;;;146.98;13.82;;;7.00;99.90;;;6.92;100.00;98024.97;5024173;28;20038;-84
2023/10/27 06:44:20;;;;;;;160.98;14.85;;;7.00;99.90;;;6.99;100.00;98038.31;5026099;28;20088;-85
2023/10/27 06:46:46;;;;;;;86.13;13.25;;;7.10;99.90;;;6.96;100.00;98036.94;5045903;28;20044;-84
2023/10/27 06:49:13;;;;;;;121.43;16.20;;;7.10;99.90;;;7.07;100.00;98050.56;5029189;28;20041;-84
2023/10/27 06:51:39;;;;;;;146.02;16.90;;;7.10;99.90;;;7.07;100.00;98031.59;5011299;28;20099;-85
2023/10/27 06:54:05;;;;;;;260.23;19.75;;;7.20;99.90;;;7.16;100.00;98040.88;5017507;28;20046;-85
2023/10/27 06:56:30;;;;;;;97.90;14.73;;;7.30;99.90;;;7.23;100.00;98046.09;5035933;28;20030;-84
2023/10/27 06:58:58;;;;;;;88.78;15.18;;;7.30;99.90;;;7.31;100.00;98049.16;5026212;28;20036;-85
2023/10/27 07:01:23;;;;;;;96.18;15.35;;;7.40;99.90;;;7.25;100.00;98039.34;5028587;28;20140;-85
2023/10/27 07:03:50;;;;;;;192.20;18.75;;;7.40;99.90;;;7.31;100.00;98043.72;5024373;28;20121;-85
2023/10/27 07:06:17;;;;;;;25.98;12.18;;;7.40;99.90;;;7.23;100.00;98014.38;5012763;28;20508;-85
2023/10/27 07:08:46;;;;;;;77.07;14.88;;;7.50;99.90;;;7.47;100.00;98033.00;5014310;28;20062;-84
2023/10/27 07:11:13;;;;;;;40.83;13.38;;;7.50;99.90;;;7.54;100.00;98030.06;5019833;28;20392;-84
2023/10/27 07:13:39;;;;;;;60.13;13.25;;;7.70;99.90;;;7.51;100.00;98025.97;5014927;28;20397;-85
2023/10/27 07:16:05;;;;;;;24.88;12.80;;;7.70;99.90;;;7.70;100.00;98033.72;5026775;28;20041;-84
2023/10/27 07:18:31;;;;;;;20.83;11.50;;;7.70;99.90;;;7.81;100.00;98042.69;5025293;28;20090;-86
2023/10/27 07:20:56;;;;;;;35.45;12.02;;;7.80;99.90;;;7.80;100.00;98031.03;5031972;28;20042;-85
2023/10/27 07:23:24;;;;;;;25.63;11.48;;;7.90;99.90;;;7.83;100.00;98021.56;5009177;28;20041;-85
2023/10/27 07:25:50;;;;;;;41.63;11.40;;;7.90;99.90;;;8.01;100.00;98042.03;5036010;28;20137;-86
2023/10/27 07:28:16;;;;;;;26.85;10.45;;;8.00;99.90;;;7.96;100.00;98025.72;5015158;28;20069;-85
2023/10/27 07:30:41;;;;;;;34.90;10.60;;;8.10;99.90;;;8.11;100.00;98041.25;5035863;28;20038;-85
2023/10/27 07:33:10;;;;;;;37.80;10.75;;;8.10;99.90;;;8.14;100.00;98035.28;5036408;28;20060;-84
2023/10/27 07:35:35;;;;;;;24.80;11.15;;;8.20;99.90;;;8.28;100.00;98033.72;5022455;28;20080;-84
2023/10/27 07:38:01;;;;;;;136.65;15.73;;;8.30;99.90;;;8.33;100.00;98036.44;5003869;28;20433;-86
2023/10/27 07:40:28;;;;;;;28.70;10.93;;;8.30;99.90;;;8.35;100.00;98022.59;5030698;28;20041;-83
2023/10/27 07:42:58;;;;;;;68.57;13.48;;;8.40;99.90;;;8.46;100.00;98028.88;5024597;28;20303;-84
2023/10/27 07:45:25;;;;;;;30.73;10.88;;;8.50;99.90;;;8.51;100.00;98025.41;5023509;28;20069;-84
2023/10/27 07:47:51;;;;;;;235.20;19.43;;;8.50;99.90;;;8.56;100.00;98017.25;5033183;28;20120;-85
2023/10/27 07:50:17;;;;;;;82.20;12.80;;;8.60;99.90;;;8.62;100.00;98017.03;5038041;28;20037;-83
2023/10/27 07:52:45;;;;;;;94.40;13.32;;;8.70;99.90;;;8.68;100.00;98025.97;5032077;28;20045;-85
2023/10/27 07:55:11;;;;;;;60.25;13.85;;;8.70;99.90;;;8.75;100.00;98026.56;5029743;28;20095;-85
2023/10/27 07:57:36;;;;;;;97.30;15.02;;;8.80;99.90;;;8.73;100.00;98022.47;5030258;28;20037;-86
2023/10/27 08:00:04;;;;;;;79.05;15.50;;;8.80;99.90;;;8.78;100.00;98014.31;5043085;28;20038;-84
2023/10/27 08:02:33;;;;;;;51.00;13.25;;;8.90;99.90;;;8.88;100.00;98027.09;5024980;28;20477;-83
2023/10/27 08:04:59;;;;;;;199.23;18.55;;;8.90;99.90;;;8.92;100.00;98030.91;5027623;28;20068;-83
2023/10/27 08:07:25;;;;;;;265.35;20.23;;;8.90;99.90;;;8.87;100.00;98018.13;5029676;28;20076;-84
2023/10/27 08:09:51;;;;;;;270.77;20.73;;;8.90;99.90;;;8.94;100.00;98019.78;5032689;28;20029;-84
2023/10/27 08:12:17;;;;;;;103.60;18.25;;;9.00;99.90;;;9.00;100.00;98014.06;5026300;28;20413;-85
2023/10/27 08:14:44;;;;;;;147.63;17.85;;;9.10;99.90;;;9.05;100.00;98024.13;5026623;28;20029;-83
2023/10/27 08:17:10;;;;;;;108.40;18.60;;;9.10;99.90;;;9.15;100.00;98020.59;5030778;28;20036;-85
2023/10/27 08:19:36;;;;;;;169.70;20.00;;;9.20;99.90;;;9.18;100.00;98011.91;5027364;28;20056;-84
2023/10/27 08:22:01;;;;;;;161.77;20.38;;;9.20;99.90;;;9.33;100.00;98011.91;5029002;28;20120;-82
2023/10/27 08:24:27;;;;;;;120.15;19.98;;;9.40;99.90;;;9.41;100.00;98018.69;5022651;28;20042;-85
2023/10/27 08:26:53;;;;;;;136.82;19.65;;;9.40;99.90;;;9.48;100.00;98021.13;5027105;28;20034;-84
2023/10/27 08:29:18;;;;;;;96.47;19.80;;;9.50;99.90;;;9.55;100.00;98024.41;5027769;28;20041;-79
2023/10/27 08:31:44;;;;;;;91.35;20.90;;;9.50;99.90;;;9.60;100.00;98027.13;5020257;28;20522;-82
2023/10/27 08:34:11;;;;;;;112.07;20.10;;;9.60;99.90;;;9.58;100.00;98031.19;5021339;28;20497;-82
2023/10/27 08:36:38;;;;;;;93.45;20.33;;;9.60;99.90;;;9.61;100.00;98031.47;5014956;28;20084;-82
2023/10/27 08:39:04;;;;;;;80.15;19.88;;;9.60;99.90;;;9.65;100.00;98042.59;5016134;28;20033;-85
2023/10/27 08:41:30;;;;;;;80.60;21.30;;;9.70;99.90;;;9.66;100.00;98041.50;5047248;28;20409;-85
2023/10/27 08:43:58;;;;;;;81.55;19.98;;;9.70;99.90;;;9.58;100.00;98040.19;5039761;28;20038;-85
2023/10/27 08:46:26;;;;;;;;;;;9.70;99.90;;;9.68;100.00;98047.53;5038949;28;20442;-87
2023/10/27 08:48:51;;;;;;;93.20;21.38;;;9.70;99.90;;;9.68;100.00;98038.53;5027205;28;19925;-87
2023/10/27 08:51:20;;;;;;;83.72;21.08;;;9.70;99.90;;;9.72;100.00;98053.22;5014603;28;20060;-88
2023/10/27 08:53:47;;;;;;;108.55;21.17;;;9.80;99.90;;;9.75;100.00;98045.31;5026100;28;20051;-86
2023/10/27 08:56:13;;;;;;;113.05;22.08;;;9.80;99.90;;;9.78;100.00;98046.66;5024143;28;20066;-88
2023/10/27 08:58:40;;;;;;;94.28;22.27;;;9.80;99.90;;;9.74;100.00;98046.41;5018446;28;20136;-87
2023/10/27 09:01:06;;;;;;;86.75;23.20;;;9.80;99.90;;;9.76;100.00;98060.56;5020414;28;20437;-87
2023/10/27 09:03:32;;;;;;;103.03;23.00;;;9.80;99.90;;;9.71;100.00;98063.31;5015636;28;20034;-86
2023/10/27 09:05:58;;;;;;;112.13;23.65;;;9.80;99.90;;;9.70;100.00;98066.28;5022913;28;20496;-87
2023/10/27 09:08:24;;;;;;;91.82;24.30;;;9.80;99.90;;;9.61;100.00;98061.41;5022003;28;20416;-87
2023/10/27 09:10:50;;;;;;;94.78;25.35;;;9.70;99.90;;;9.73;100.00;98065.75;5020221;28;20046;-87
2023/10/27 09:13:24;;;;;;;98.93;23.88;;;9.80;99.90;;;9.76;100.00;98065.19;5029356;28;20117;-87
2023/10/27 09:15:51;;;;;;;94.95;25.25;;;9.80;99.90;;;9.72;100.00;98062.22;5025374;28;20065;-86
2023/10/27 09:18:34;;;;;;;76.15;23.98;;;9.80;99.90;;;9.75;100.00;98063.56;5013553;28;20034;-86
2023/10/27 09:21:00;;;;;;;95.82;24.60;;;9.90;99.90;;;9.74;100.00;98064.66;5029170;28;20040;-87
2023/10/27 09:23:25;;;;;;;92.28;25.52;;;9.80;99.90;;;9.71;100.00;98065.19;5043607;28;20033;-87
2023/10/27 09:25:56;;;;;;;87.90;25.00;;;9.80;99.90;;;9.67;100.00;98062.19;5012512;28;20076;-87
2023/10/27 09:28:28;;;;;;;78.35;24.80;;;9.80;99.90;;;9.59;100.00;98058.16;5012889;28;20120;-87
2023/10/27 09:30:54;;;;;;;88.80;24.90;;;9.70;99.90;;;9.57;100.00;98049.44;5022401;28;20041;-88
2023/10/27 09:33:26;;;;;;;80.38;25.17;;;9.70;99.90;;;9.61;100.00;98049.69;5029297;28;20060;-87
2023/10/27 09:35:53;;;;;;;74.72;24.48;;;9.80;99.90;;;9.59;100.00;98043.72;5019394;28;20149;-87
2023/10/27 09:38:22;;;;;;;74.00;25.15;;;9.80;99.90;;;9.63;100.00;98050.22;5022253;28;20049;-87
2023/10/27 09:40:49;;;;;;;74.97;24.38;;;9.80;99.90;;;9.55;100.00;98048.06;5043525;28;20049;-87
2023/10/27 09:43:17;;;;;;;75.10;25.33;;;9.80;99.90;;;9.55;100.00;98042.63;5025325;28;20038;-87
2023/10/27 09:46:04;;;;;;;90.50;26.80;;;9.70;99.90;;;9.60;100.00;98043.44;5023096;28;20041;-87
2023/10/27 09:48:30;;;;;;;88.15;28.80;;;9.70;99.90;;;9.66;100.00;98038.00;5036021;28;20034;-87
2023/10/27 09:51:04;;;;;;;88.60;30.48;;;9.80;99.90;;;9.64;100.00;98040.97;5044494;28;20041;-87
2023/10/27 09:53:31;;;;;;;107.30;35.75;;;9.80;99.90;;;9.64;100.00;98043.69;5027870;28;20055;-86
2023/10/27 09:55:59;;;;;;;104.03;37.42;;;9.70;99.90;;;9.52;100.00;98049.41;5021543;28;20044;-86
2023/10/27 09:58:30;;;;;;;104.28;36.58;;;9.70;99.90;;;9.45;100.00;98052.44;5026963;28;20045;-87
2023/10/27 10:00:58;;;;;;;106.32;37.65;;;9.70;99.90;;;9.65;100.00;98056.22;5012904;28;20478;-88
2023/10/27 10:03:27;;;;;;;116.18;38.65;;;9.70;99.90;;;9.72;100.00;98048.59;5019227;28;20400;-87
2023/10/27 10:06:14;;;;;;;113.07;41.28;;;9.80;99.90;;;9.80;100.00;98058.09;5024696;28;20037;-87
2023/10/27 10:08:41;;;;;;;118.15;40.85;;;9.90;99.90;;;9.89;100.00;98058.34;5027923;28;20057;-86
2023/10/27 10:11:16;;;;;;;120.20;42.35;;;10.00;99.90;;;9.96;100.00;98071.69;5029251;28;20452;-87
2023/10/27 10:13:41;;;;;;;119.25;41.88;;;10.10;99.90;;;9.76;100.00;98086.97;5021042;28;20064;-86